createdAt,value
2018-08-20T00:01:06.685Z,12.63
2018-08-20T00:06:09.867Z,12.90
2018-08-20T00:11:13.058Z,13.03
2018-08-20T00:16:18.533Z,12.53
2018-08-20T00:21:21.770Z,12.73
2018-08-20T00:26:26.255Z,12.33
2018-08-20T00:31:29.443Z,13.00
2018-08-20T00:36:32.636Z,13.20
2018-08-20T00:41:35.830Z,12.60
2018-08-20T00:46:39.038Z,13.50
2018-08-20T00:51:42.239Z,13.07
2018-08-20T00:56:45.426Z,14.23
2018-08-20T01:01:48.711Z,14.53
2018-08-20T01:06:51.899Z,12.93
2018-08-20T01:11:57.173Z,13.27
2018-08-20T01:17:00.395Z,13.93
2018-08-20T01:22:03.574Z,13.43
2018-08-20T01:27:06.869Z,14.33
2018-08-20T01:32:10.067Z,12.63
2018-08-20T01:37:14.389Z,14.10
2018-08-20T01:42:18.063Z,13.20
2018-08-20T01:47:21.237Z,13.43
2018-08-20T01:52:24.425Z,12.13
2018-08-20T01:57:27.598Z,11.70
2018-08-20T02:02:30.826Z,10.87
2018-08-20T02:07:34.090Z,11.70
2018-08-20T02:12:40.086Z,11.03
2018-08-20T02:17:43.328Z,12.03
2018-08-20T02:22:46.470Z,10.43
2018-08-20T02:27:49.709Z,11.90
2018-08-20T02:32:52.906Z,11.33
2018-08-20T02:37:56.085Z,11.37
2018-08-20T02:42:59.295Z,11.10
2018-08-20T02:48:02.515Z,11.50
2018-08-20T02:53:05.802Z,11.50
2018-08-20T02:58:09.111Z,11.67
2018-08-20T03:03:12.408Z,11.60
2018-08-20T03:08:15.598Z,11.43
2018-08-20T03:13:18.823Z,10.13
2018-08-20T03:18:22.036Z,10.50
2018-08-20T03:23:25.233Z,9.63
2018-08-20T03:28:34.295Z,11.53
2018-08-20T03:33:37.498Z,12.60
2018-08-20T03:38:40.662Z,14.60
2018-08-20T03:43:43.853Z,15.73
2018-08-20T03:48:47.237Z,16.33
2018-08-20T03:53:51.419Z,14.30
2018-08-20T03:58:54.676Z,13.73
2018-08-20T04:03:57.901Z,13.53
2018-08-20T04:09:01.074Z,13.23
2018-08-20T04:14:04.282Z,12.50
2018-08-20T04:19:08.076Z,13.07
2018-08-20T04:24:11.365Z,13.00
2018-08-20T04:29:14.547Z,13.60
2018-08-20T04:34:17.774Z,16.00
2018-08-20T04:39:22.983Z,15.53
2018-08-20T04:44:26.174Z,16.10
2018-08-20T04:49:29.462Z,16.50
2018-08-20T04:54:33.749Z,18.27
2018-08-20T04:59:36.941Z,19.10
2018-08-20T05:04:40.188Z,17.97
2018-08-20T05:09:51.124Z,19.87
2018-08-20T05:14:54.297Z,18.30
2018-08-20T05:19:57.514Z,18.40
2018-08-20T05:25:00.726Z,18.20
2018-08-20T05:30:03.954Z,17.53
2018-08-20T05:35:07.446Z,21.73
2018-08-20T05:40:10.637Z,18.70
2018-08-20T05:45:18.247Z,19.87
2018-08-20T05:50:21.481Z,21.00
2018-08-20T05:55:29.222Z,20.60
2018-08-20T06:00:32.384Z,20.23
2018-08-20T06:05:35.590Z,22.20
2018-08-20T06:10:40.859Z,20.00
2018-08-20T06:15:44.031Z,22.53
2018-08-20T06:20:47.237Z,24.00
2018-08-20T06:25:55.159Z,23.67
2018-08-20T06:30:58.663Z,24.83
2018-08-20T06:36:04.054Z,24.93
2018-08-20T06:41:07.250Z,25.90
2018-08-20T06:46:11.279Z,26.50
2018-08-20T06:51:15.722Z,28.37
2018-08-20T06:56:20.082Z,30.77
2018-08-20T07:01:23.411Z,27.97
2018-08-20T07:06:26.651Z,27.73
2018-08-20T07:11:29.865Z,30.00
2018-08-20T07:16:33.136Z,31.27
2018-08-20T07:21:36.403Z,31.03
2018-08-20T07:26:43.043Z,31.63
2018-08-20T07:31:46.226Z,31.43
2018-08-20T07:36:57.154Z,29.77
2018-08-20T07:42:00.354Z,29.77
2018-08-20T07:47:05.470Z,27.47
2018-08-20T07:52:12.138Z,27.87
2018-08-20T07:57:15.513Z,25.53
2018-08-20T08:02:18.725Z,22.57
2018-08-20T08:07:21.958Z,20.80
2018-08-20T08:12:25.122Z,20.80
2018-08-20T08:17:29.850Z,21.80
2018-08-20T08:22:39.414Z,22.83
2018-08-20T08:27:43.024Z,22.23
2018-08-20T08:32:47.342Z,22.00
2018-08-20T08:37:51.646Z,22.57
2018-08-20T08:42:54.926Z,25.20
2018-08-20T08:47:58.539Z,27.53
2018-08-20T08:53:03.069Z,28.77
2018-08-20T08:58:06.303Z,28.27
2018-08-20T09:03:09.530Z,29.37
2018-08-20T09:08:12.745Z,30.60
2018-08-20T09:13:17.029Z,32.53
2018-08-20T09:18:20.326Z,33.93
2018-08-20T09:23:23.605Z,36.40
2018-08-20T09:28:26.802Z,37.13
2018-08-20T09:41:02.308Z,43.57
2018-08-20T09:46:05.685Z,43.33
2018-08-20T09:51:14.020Z,44.97
2018-08-20T09:56:17.206Z,44.00
2018-08-20T10:01:20.447Z,42.00
2018-08-20T10:06:23.658Z,44.40
2018-08-20T10:11:28.937Z,47.63
2018-08-20T10:16:32.171Z,48.97
2018-08-20T10:21:35.388Z,46.40
2018-08-20T10:26:38.661Z,44.20
2018-08-20T10:31:42.240Z,47.27
2018-08-20T10:36:45.426Z,46.07
2018-08-20T10:41:48.639Z,46.47
2018-08-20T10:46:51.842Z,47.10
2018-08-20T10:51:55.080Z,44.03
2018-08-20T10:56:58.262Z,44.60
2018-08-20T11:02:01.474Z,40.73
2018-08-20T11:07:04.590Z,42.67
2018-08-20T11:12:07.845Z,39.53
2018-08-20T11:17:11.018Z,39.17
2018-08-20T11:22:14.388Z,40.60
2018-08-20T11:27:17.745Z,38.07
2018-08-20T11:32:21.003Z,34.47
2018-08-20T11:37:24.211Z,32.87
2018-08-20T11:42:27.438Z,32.53
2018-08-20T11:47:30.770Z,31.00
2018-08-20T11:52:34.042Z,31.57
2018-08-20T11:57:37.371Z,29.40
2018-08-20T12:02:40.747Z,31.43
2018-08-20T12:07:44.168Z,28.30
2018-08-20T12:12:47.253Z,26.60
2018-08-20T12:17:50.478Z,27.67
2018-08-20T12:22:53.726Z,26.50
2018-08-20T12:27:56.910Z,28.17
2018-08-20T12:33:00.158Z,29.40
2018-08-20T12:38:03.358Z,30.50
2018-08-20T12:43:10.419Z,31.90
2018-08-20T12:48:14.318Z,29.87
2018-08-20T12:53:17.626Z,28.23
2018-08-20T12:58:20.942Z,28.30
2018-08-20T13:03:24.206Z,31.73
2018-08-20T13:08:27.449Z,26.20
2018-08-20T13:13:30.734Z,22.50
2018-08-20T13:18:35.022Z,18.40
2018-08-20T13:23:38.390Z,17.40
2018-08-20T13:28:42.614Z,18.67
2018-08-20T13:33:45.974Z,11.17
2018-08-20T13:38:50.358Z,10.30
2018-08-20T13:43:54.551Z,9.40
2018-08-20T13:48:57.850Z,8.93
2018-08-20T13:54:01.119Z,9.13
2018-08-20T13:59:04.362Z,10.40
2018-08-20T14:04:07.638Z,12.07
2018-08-20T14:09:11.421Z,16.43
2018-08-20T14:14:14.694Z,20.30
2018-08-20T14:19:17.891Z,20.17
2018-08-20T14:24:21.178Z,19.00
2018-08-20T14:29:24.418Z,19.67
2018-08-20T14:34:27.672Z,19.10
2018-08-20T14:39:30.885Z,20.30
2018-08-20T14:44:38.203Z,20.57
2018-08-20T14:49:41.457Z,20.90
2018-08-20T14:54:44.659Z,20.00
2018-08-20T14:59:47.905Z,20.70
2018-08-20T15:04:51.179Z,20.83
2018-08-20T15:09:54.467Z,19.83
2018-08-20T15:14:57.687Z,19.10
2018-08-20T15:20:01.278Z,20.00
2018-08-20T15:25:05.093Z,19.80
2018-08-20T15:30:08.529Z,19.47
2018-08-20T15:35:11.774Z,15.87
2018-08-20T15:40:18.151Z,16.33
2018-08-20T15:45:26.384Z,16.47
2018-08-20T15:50:29.714Z,13.07
2018-08-20T15:55:34.465Z,13.30
2018-08-20T16:00:40.819Z,15.00
2018-08-20T16:05:45.054Z,14.90
2018-08-20T16:10:48.345Z,14.67
2018-08-20T16:15:51.542Z,11.30
2018-08-20T16:20:54.998Z,10.13
2018-08-20T16:25:58.362Z,39.33
2018-08-20T16:31:01.602Z,29.20
2018-08-20T16:36:04.822Z,16.00
2018-08-20T16:41:08.040Z,6.30
2018-08-20T16:46:11.334Z,5.90
2018-08-20T16:51:14.539Z,8.00
2018-08-20T16:56:18.801Z,8.77
2018-08-20T17:01:22.003Z,5.07
2018-08-20T17:06:46.005Z,3.87
2018-08-20T17:11:52.287Z,3.73
2018-08-20T17:16:56.607Z,3.37
2018-08-20T17:22:06.916Z,3.13
2018-08-20T17:27:13.290Z,3.40
2018-08-20T17:32:17.522Z,2.83
2018-08-20T17:37:20.813Z,2.50
2018-08-20T17:42:24.656Z,2.43
2018-08-20T17:47:28.327Z,2.37
2018-08-20T17:52:40.943Z,2.80
2018-08-20T17:57:44.132Z,2.07
2018-08-20T18:02:47.367Z,1.70
2018-08-20T18:07:50.635Z,2.10
2018-08-20T18:12:54.999Z,2.63
2018-08-20T18:17:58.191Z,1.53
2018-08-20T18:23:01.382Z,2.20
2018-08-20T18:28:04.582Z,1.70
2018-08-20T18:33:12.998Z,1.20
2018-08-20T18:38:17.604Z,1.00
2018-08-20T18:43:25.429Z,1.20
2018-08-20T18:48:33.829Z,1.70
2018-08-20T18:53:37.139Z,0.80
2018-08-20T18:58:44.930Z,1.20
2018-08-20T19:03:49.084Z,1.27
2018-08-20T19:08:52.371Z,1.17
2018-08-20T19:14:04.547Z,1.33
2018-08-20T19:19:08.811Z,0.80
2018-08-20T19:24:12.048Z,0.90
2018-08-20T19:29:24.767Z,1.10
2018-08-20T19:34:30.021Z,1.30
2018-08-20T19:39:40.137Z,1.07
2018-08-20T19:44:45.666Z,1.07
2018-08-20T19:49:50.945Z,1.10
2018-08-20T19:54:59.735Z,0.90
2018-08-20T20:00:07.155Z,1.30
2018-08-20T20:05:12.930Z,1.40
2018-08-20T20:10:16.538Z,1.43
2018-08-20T20:15:25.131Z,1.80
2018-08-20T20:20:28.540Z,1.53
2018-08-20T20:25:31.825Z,1.80
2018-08-20T20:30:35.074Z,1.53
2018-08-20T20:35:39.478Z,1.10
2018-08-20T20:40:43.870Z,1.30
2018-08-20T20:45:47.126Z,0.90
2018-08-20T20:50:54.272Z,1.20
2018-08-20T20:56:01.463Z,0.90
2018-08-20T21:01:06.205Z,0.87
2018-08-20T21:06:13.376Z,1.07
2018-08-20T21:11:17.558Z,1.13
2018-08-20T21:16:24.069Z,1.07
2018-08-20T21:21:27.806Z,0.80
2018-08-20T21:26:31.054Z,1.13
2018-08-20T21:31:42.466Z,1.10
2018-08-20T21:36:45.774Z,1.13
2018-08-20T21:41:49.022Z,0.90
2018-08-20T21:46:53.307Z,0.90
2018-08-20T21:51:58.915Z,0.70
2018-08-20T21:57:02.191Z,0.63
2018-08-20T22:02:14.472Z,0.77
2018-08-20T22:07:17.739Z,0.80
2018-08-20T22:12:22.005Z,0.80
2018-08-20T22:17:29.590Z,0.60
2018-08-20T22:22:32.827Z,0.77
2018-08-20T22:27:41.473Z,1.00
2018-08-20T22:32:45.089Z,1.30
2018-08-20T22:37:52.417Z,1.17
2018-08-20T22:42:57.383Z,1.10
2018-08-20T22:48:04.582Z,1.43
2018-08-20T22:53:07.808Z,1.23
2018-08-20T22:58:11.301Z,1.40
2018-08-20T23:03:14.498Z,1.53
2018-08-20T23:08:18.321Z,1.40
2018-08-20T23:13:22.605Z,1.40
2018-08-20T23:18:25.860Z,1.70
2018-08-20T23:23:33.351Z,1.70
2018-08-20T23:28:39.975Z,1.60
2018-08-20T23:33:43.182Z,1.80
2018-08-20T23:38:46.406Z,2.07
2018-08-20T23:43:55.887Z,1.90
2018-08-20T23:48:59.210Z,1.93
2018-08-20T23:54:02.594Z,1.80
2018-08-20T23:59:06.239Z,2.07
